Colorado Springs, CO (80942)

11:36 AM MST on December 22, 2014 (GMT -0700)
Old North End (Cascade & Washington) | Change Station
CLOSE
Current Station
Personal Weather Station
Location: Colorado Springs, CO
Elevation: 6122 ft
Nearby Weather Stations
Active Advisory: High Wind Watch Active Notice: Public Information Statement

Elev 6122 ft 38.86 °N, 104.82 °W | Updated 4 minutes ago

Overcast
Overcast
39.6 °F
Feels Like 40 °F
N
2.2
Wind Variable Wind from WSW

Today
High -- | Low -- °F
--% Chance of Precip.
Yesterday
High -- | Low -- °F
Precip. -- in
7:14 AM 4:41 PM
New Moon, 1% visible
Pressure 29.75 in
Visibility 10.0 miles
Clouds Scattered Clouds 6000 ft
Mostly Cloudy 10000 ft
Overcast 20000 ft
Windchill 40 °F
Dew Point 30 °F
Humidity 68%
Rainfall 0.00 in
Snow Depth Not available.
UV 1 out of 12
Pollen .10 out of 12
Air Quality Not available.
Flu Activity Not available.
METAR KCOS 221754Z 13011KT 10SM SCT060 BKN100 OVC200 01/M01 A2972 RMK AO2 SLP075 VCSH OMTNS W T00061011 10033 21017 58012

More Conditions Fewer Conditions

Pressure 29.75 in
Visibility 10.0 miles
Clouds Scattered Clouds 6000 ft
Mostly Cloudy 10000 ft
Overcast 20000 ft
Windchill 40 °F
Dew Point 30 °F
Humidity 68%
Rainfall 0.00 in
Snow Depth Not available.
UV 1 out of 12
Pollen .10 out of 12
Air Quality Not available.
Flu Activity Not available.
METAR KCOS 221754Z 13011KT 10SM SCT060 BKN100 OVC200 01/M01 A2972 RMK AO2 SLP075 VCSH OMTNS W T00061011 10033 21017 58012

More Conditions Fewer Conditions

10-Day Weather Forecast

Almanac

Astronomy

Dec. 22, 2014 Rise Set
Actual Time
Civil Twilight
Nautical Twilight
Astronomical Twilight
Moon
Length of Visible Light
Length of Day
Tomorrow will be .
, % of the Moon is Illuminated

Today's Extremes

State Highs State Lows

Community

WunderPhotos

Upload Photos

1,779,671 photos uploaded!

WunderBlogs® & News

Nearby

Air Quality

  Air Quality AQ Index Pollutant
Not available.

Snow Depth

Station Depth Elevation

Earthquake Activity

City Distance Mag. Time & Date
Minimum magnitude displayed is 2.5.

Coastal Water Temperatures

Place Temperature

Nearby Weather Stations